Time,TemperatureF,DewpointF,PressureIn,WindDirection,WindDirectionDegrees,WindSpeedMPH,WindSpeedGustMPH,Humidity,HourlyPrecipIn,Conditions,Clouds,dailyrainin,SoftwareType,DateUTC
2013-04-07 02:02:00,39.1,33.0,29.72,NNE,30,4.0,5.0,80,0.00,,,0.00,weatherlink.com 1.10,2013-04-07 08:02:00,
2013-04-07 02:39:00,37.6,34.0,29.70,NE,47,0.0,0.0,86,0.00,,,0.00,weatherlink.com 1.10,2013-04-07 08:39:00,
2013-04-07 02:58:00,37.5,34.0,29.69,NE,47,0.0,1.0,86,0.00,,,0.00,weatherlink.com 1.10,2013-04-07 08:58:00,
2013-04-07 03:13:00,37.0,34.0,29.68,NE,47,0.0,0.0,87,0.00,,,0.00,weatherlink.com 1.10,2013-04-07 09:13:00,
2013-04-07 03:28:00,36.4,33.0,29.68,NE,47,0.0,0.0,88,0.00,,,0.00,weatherlink.com 1.10,2013-04-07 09:28:00,
2013-04-07 03:43:00,36.2,34.0,29.68,NE,47,0.0,0.0,90,0.00,,,0.00,weatherlink.com 1.10,2013-04-07 09:43:00,
2013-04-07 03:58:00,36.3,34.0,29.67,NE,47,0.0,0.0,90,0.00,,,0.00,weatherlink.com 1.10,2013-04-07 09:58:00,
2013-04-07 04:13:00,36.4,34.0,29.66,NE,47,0.0,0.0,90,0.00,,,0.00,weatherlink.com 1.10,2013-04-07 10:13:00,
2013-04-07 04:28:00,36.5,34.0,29.65,NE,47,0.0,0.0,90,0.00,,,0.00,weatherlink.com 1.10,2013-04-07 10:28:00,
2013-04-07 04:43:00,36.3,34.0,29.65,NE,47,0.0,0.0,90,0.00,,,0.00,weatherlink.com 1.10,2013-04-07 10:43:00,
2013-04-07 04:58:00,36.5,34.0,29.64,NE,47,0.0,0.0,91,0.00,,,0.00,weatherlink.com 1.10,2013-04-07 10:58:00,
2013-04-07 05:13:00,36.7,34.0,29.64,NE,47,0.0,0.0,90,0.00,,,0.00,weatherlink.com 1.10,2013-04-07 11:13:00,
2013-04-07 05:28:00,36.4,34.0,29.63,NE,47,0.0,0.0,90,0.00,,,0.00,weatherlink.com 1.10,2013-04-07 11:28:00,
2013-04-07 05:43:00,36.2,34.0,29.63,NE,47,0.0,0.0,91,0.00,,,0.00,weatherlink.com 1.10,2013-04-07 11:43:00,
2013-04-07 05:58:00,36.1,34.0,29.63,NE,47,0.0,0.0,92,0.00,,,0.00,weatherlink.com 1.10,2013-04-07 11:58:00,
2013-04-07 06:13:00,36.4,34.0,29.62,NE,47,0.0,0.0,90,0.00,,,0.00,weatherlink.com 1.10,2013-04-07 12:13:00,
2013-04-07 06:43:00,36.1,34.0,29.61,NE,47,0.0,0.0,91,0.00,,,0.00,weatherlink.com 1.10,2013-04-07 12:43:00,
2013-04-07 06:58:00,36.0,34.0,29.60,NE,47,0.0,0.0,91,0.00,,,0.00,weatherlink.com 1.10,2013-04-07 12:58:00,
2013-04-07 07:28:00,36.0,34.0,29.59,ENE,57,0.0,0.0,93,0.00,,,0.00,weatherlink.com 1.10,2013-04-07 13:28:00,
2013-04-07 07:44:00,38.3,36.0,29.59,SSE,163,2.0,5.0,92,0.00,,,0.00,weatherlink.com 1.10,2013-04-07 13:44:00,
2013-04-07 07:59:00,39.4,36.0,29.59,SSE,168,2.0,9.0,88,0.00,,,0.00,weatherlink.com 1.10,2013-04-07 13:59:00,
2013-04-07 08:14:00,39.3,36.0,29.59,SSE,168,4.0,9.0,87,0.00,,,0.00,weatherlink.com 1.10,2013-04-07 14:14:00,
2013-04-07 08:29:00,39.4,36.0,29.58,South,170,4.0,10.0,87,0.01,,,0.01,weatherlink.com 1.10,2013-04-07 14:29:00,
2013-04-07 08:44:00,39.3,36.0,29.57,SSE,157,5.0,8.0,88,0.01,,,0.01,weatherlink.com 1.10,2013-04-07 14:44:00,
2013-04-07 08:59:00,39.7,36.0,29.57,South,171,6.0,11.0,87,0.01,,,0.01,weatherlink.com 1.10,2013-04-07 14:59:00,
2013-04-07 09:14:00,39.9,36.0,29.56,South,177,5.0,9.0,87,0.01,,,0.01,weatherlink.com 1.10,2013-04-07 15:14:00,
2013-04-07 09:29:00,40.0,37.0,29.56,South,186,4.0,10.0,87,0.00,,,0.01,weatherlink.com 1.10,2013-04-07 15:29:00,
2013-04-07 09:44:00,39.8,37.0,29.55,SSE,158,1.0,8.0,88,0.00,,,0.01,weatherlink.com 1.10,2013-04-07 15:44:00,
2013-04-07 09:59:00,39.8,37.0,29.55,South,174,2.0,7.0,89,0.00,,,0.01,weatherlink.com 1.10,2013-04-07 15:59:00,
2013-04-07 10:29:00,40.1,37.0,29.54,South,169,3.0,8.0,89,0.01,,,0.02,weatherlink.com 1.10,2013-04-07 16:29:00,
2013-04-07 10:44:00,39.8,37.0,29.54,South,178,2.0,9.0,90,0.02,,,0.03,weatherlink.com 1.10,2013-04-07 16:44:00,
2013-04-07 10:59:00,40.2,38.0,29.54,SSW,194,7.0,11.0,90,0.03,,,0.04,weatherlink.com 1.10,2013-04-07 16:59:00,
2013-04-07 11:14:00,40.3,38.0,29.54,SW,217,1.0,8.0,90,0.02,,,0.04,weatherlink.com 1.10,2013-04-07 17:14:00,
2013-04-07 11:29:00,40.6,38.0,29.54,SSW,207,2.0,7.0,90,0.02,,,0.04,weatherlink.com 1.10,2013-04-07 17:29:00,
2013-04-07 11:44:00,41.1,39.0,29.54,WSW,246,4.0,8.0,93,0.02,,,0.05,weatherlink.com 1.10,2013-04-07 17:44:00,
2013-04-07 11:59:00,41.6,39.0,29.54,SSW,211,2.0,5.0,91,0.01,,,0.05,weatherlink.com 1.10,2013-04-07 17:59:00,
2013-04-07 12:14:00,42.0,39.0,29.53,SSW,213,2.0,6.0,90,0.01,,,0.05,weatherlink.com 1.10,2013-04-07 18:14:00,
2013-04-07 12:29:00,43.1,40.0,29.53,SSW,198,0.0,4.0,89,0.01,,,0.05,weatherlink.com 1.10,2013-04-07 18:29:00,
2013-04-07 12:44:00,43.4,40.0,29.52,SSE,153,1.0,7.0,87,0.00,,,0.05,weatherlink.com 1.10,2013-04-07 18:44:00,
2013-04-07 12:59:00,44.0,40.0,29.51,SW,234,1.0,9.0,86,0.00,,,0.05,weatherlink.com 1.10,2013-04-07 18:59:00,
2013-04-07 13:14:00,45.5,41.0,29.51,WSW,252,2.0,7.0,83,0.00,,,0.05,weatherlink.com 1.10,2013-04-07 19:14:00,
2013-04-07 13:29:00,45.9,40.0,29.50,West,261,1.0,7.0,81,0.00,,,0.05,weatherlink.com 1.10,2013-04-07 19:29:00,
2013-04-07 13:59:00,46.8,40.0,29.50,SW,235,3.0,7.0,77,0.00,,,0.05,weatherlink.com 1.10,2013-04-07 19:59:00,
2013-04-07 14:14:00,46.0,40.0,29.51,North,350,4.0,10.0,80,0.01,,,0.06,weatherlink.com 1.10,2013-04-07 20:14:00,
2013-04-07 14:29:00,46.0,41.0,29.51,North,9,5.0,9.0,81,0.02,,,0.07,weatherlink.com 1.10,2013-04-07 20:29:00,
2013-04-07 14:44:00,47.5,43.0,29.50,North,360,11.0,14.0,84,0.02,,,0.07,weatherlink.com 1.10,2013-04-07 20:44:00,
2013-04-07 14:59:00,48.3,39.0,29.50,North,5,8.0,18.0,69,0.02,,,0.07,weatherlink.com 1.10,2013-04-07 20:59:00,
2013-04-07 15:15:00,49.9,39.0,29.51,SW,217,4.0,11.0,66,0.01,,,0.07,weatherlink.com 1.10,2013-04-07 21:15:00,
2013-04-07 15:30:00,49.9,38.0,29.52,SSE,166,6.0,10.0,63,0.00,,,0.07,weatherlink.com 1.10,2013-04-07 21:30:00,
2013-04-07 15:45:00,49.5,38.0,29.52,SSW,194,6.0,11.0,65,0.00,,,0.07,weatherlink.com 1.10,2013-04-07 21:45:00,
2013-04-07 16:00:00,48.7,40.0,29.52,SSW,193,7.0,13.0,72,0.00,,,0.07,weatherlink.com 1.10,2013-04-07 22:00:00,
2013-04-07 16:15:00,48.5,39.0,29.52,SSE,150,7.0,11.0,71,0.00,,,0.07,weatherlink.com 1.10,2013-04-07 22:15:00,
2013-04-07 16:30:00,48.6,38.0,29.52,SSE,148,6.0,12.0,68,0.00,,,0.07,weatherlink.com 1.10,2013-04-07 22:30:00,
2013-04-07 16:45:00,49.1,37.0,29.52,SSE,149,6.0,10.0,63,0.00,,,0.07,weatherlink.com 1.10,2013-04-07 22:45:00,
2013-04-07 17:00:00,49.1,35.0,29.52,SE,142,0.0,6.0,58,0.00,,,0.07,weatherlink.com 1.10,2013-04-07 23:00:00,
2013-04-07 17:15:00,49.6,36.0,29.53,West,278,3.0,4.0,60,0.00,,,0.07,weatherlink.com 1.10,2013-04-07 23:15:00,
2013-04-07 17:30:00,48.9,33.0,29.54,NW,311,10.0,26.0,54,0.00,,,0.07,weatherlink.com 1.10,2013-04-07 23:30:00,
2013-04-07 17:45:00,47.0,30.0,29.55,NNW,327,8.0,19.0,51,0.00,,,0.07,weatherlink.com 1.10,2013-04-07 23:45:00,
2013-04-07 18:00:00,46.9,30.0,29.55,NW,323,4.0,8.0,52,0.00,,,0.07,weatherlink.com 1.10,2013-04-08 00:00:00,
2013-04-07 18:15:00,48.0,29.0,29.56,North,355,7.0,15.0,49,0.00,,,0.07,weatherlink.com 1.10,2013-04-08 00:15:00,
2013-04-07 18:30:00,48.0,29.0,29.56,NNW,338,9.0,19.0,49,0.00,,,0.07,weatherlink.com 1.10,2013-04-08 00:30:00,
2013-04-07 18:45:00,47.5,29.0,29.56,North,355,18.0,23.0,49,0.00,,,0.07,weatherlink.com 1.10,2013-04-08 00:45:00,
2013-04-07 19:00:00,46.8,29.0,29.57,NNW,327,9.0,21.0,50,0.00,,,0.07,weatherlink.com 1.10,2013-04-08 01:00:00,
2013-04-07 19:15:00,46.5,30.0,29.58,NNW,328,15.0,21.0,52,0.00,,,0.07,weatherlink.com 1.10,2013-04-08 01:15:00,
2013-04-07 19:30:00,42.7,32.0,29.59,NW,305,11.0,22.0,67,0.00,,,0.07,weatherlink.com 1.10,2013-04-08 01:30:00,
2013-04-07 19:45:00,41.2,32.0,29.59,NW,315,13.0,20.0,71,0.00,,,0.07,weatherlink.com 1.10,2013-04-08 01:45:00,
2013-04-07 20:00:00,41.0,33.0,29.59,North,360,11.0,21.0,73,0.00,,,0.07,weatherlink.com 1.10,2013-04-08 02:00:00,
2013-04-07 20:15:00,41.7,33.0,29.59,North,360,0.0,13.0,70,0.00,,,0.07,weatherlink.com 1.10,2013-04-08 02:15:00,
2013-04-07 20:30:00,41.4,33.0,29.60,NNW,334,8.0,9.0,71,0.00,,,0.07,weatherlink.com 1.10,2013-04-08 02:30:00,
2013-04-07 20:45:00,41.5,32.0,29.61,NNW,332,6.0,8.0,70,0.00,,,0.07,weatherlink.com 1.10,2013-04-08 02:45:00,
2013-04-07 21:00:00,41.4,32.0,29.62,NNE,17,5.0,7.0,70,0.00,,,0.07,weatherlink.com 1.10,2013-04-08 03:00:00,
2013-04-07 21:15:00,41.3,32.0,29.62,North,10,3.0,7.0,70,0.00,,,0.07,weatherlink.com 1.10,2013-04-08 03:15:00,
2013-04-07 21:30:00,40.8,32.0,29.63,North,355,1.0,5.0,72,0.00,,,0.07,weatherlink.com 1.10,2013-04-08 03:30:00,
2013-04-07 22:00:00,39.4,32.0,29.64,North,355,2.0,4.0,75,0.00,,,0.07,weatherlink.com 1.10,2013-04-08 04:00:00,
2013-04-07 22:15:00,38.1,31.0,29.64,ENE,71,4.0,7.0,74,0.00,,,0.07,weatherlink.com 1.10,2013-04-08 04:15:00,
2013-04-07 22:30:00,37.6,31.0,29.65,NE,44,2.0,4.0,76,0.00,,,0.07,weatherlink.com 1.10,2013-04-08 04:30:00,
2013-04-07 22:45:00,36.6,30.0,29.65,ENE,57,0.0,3.0,78,0.00,,,0.07,weatherlink.com 1.10,2013-04-08 04:45:00,
2013-04-07 23:00:00,35.8,31.0,29.65,ENE,57,2.0,3.0,81,0.00,,,0.07,weatherlink.com 1.10,2013-04-08 05:00:00,
2013-04-07 23:15:00,36.1,31.0,29.66,NE,38,4.0,4.0,81,0.00,,,0.07,weatherlink.com 1.10,2013-04-08 05:15:00,
2013-04-07 23:30:00,38.6,31.0,29.66,NNE,15,7.0,9.0,75,0.00,,,0.07,weatherlink.com 1.10,2013-04-08 05:30:00,
2013-04-07 23:45:00,39.9,31.0,29.66,NNE,24,3.0,8.0,71,0.00,,,0.07,weatherlink.com 1.10,2013-04-08 05:45:00,